New Kingston, New York
Current Conditions -  °F | °C
As of 1:55 PM on Monday 20 Oct 2014 (Local Time) from KMSV Reporting Station
Few Clouds Few Clouds  
Wind Chill: 50°   Ceiling: Unl
Heat Index: 50°   Visibility: 10mi
Dew Point: 36°   Wind: 6mph
Humidity: 58%   Direction: 190°S
Pressure: 29.98"   Gusts: NA
Location:  42.21°N, 74.68°W
Report Text: KMSV 201755Z AUTO 19005KT 10SM FEW110 10/02 A2998 RMK AO1 10110 21010 57020
Loading
Personal Weather Stations






























Interactive Weather Map
Tropical Storm Tracking
New forecast layout! Learn more

10-Day Weather Forecast

Advertisements
Track Severe Weather on mobile